Terminal Aerodrome Forecast
Issued by NWS

Home | Current Version | Previous Version | Text Only | Print | Product List | Glossary On
Versions: 1 2 3 4 5 6 7 8 9 10 11 12 13 14 15
000
FTUS43 KLSX 031727
TAFUIN
TAF
KUIN 031727Z 0318/0418 29018G28KT P6SM OVC015
     FM040000 30014KT P6SM OVC020
     FM040400 31013KT P6SM BKN035
     FM041600 24008KT P6SM FEW250=

USA.gov is the U.S. government's official web portal to all federal, state and local government web resources and services.